Time;durP1;ratioP1;P1;durP2;ratioP2;P2;SDS_P1;SDS_P2;PMS_P1;PMS_P2;Temp;Humidity;BMP_temperature;BMP_pressure;BME280_temperature;BME280_humidity;BME280_pressure;Samples;Min_cycle;Max_cycle;Signal;HPM_P1;HPM_P2
2022/03/04 05:26:43;;;;;;;49.10;26.23;;;;;;;1.74;75.20;100364.41;6637515;26;165014;-90
2022/03/04 05:29:46;;;;;;;50.58;25.08;;;;;;;1.74;75.20;100364.41;6641810;26;33697;-89
2022/03/04 05:32:49;;;;;;;47.70;25.60;;;;;;;1.24;74.37;100365.03;6642137;26;34654;-90
2022/03/04 05:35:52;;;;;;;49.75;25.37;;;;;;;1.34;73.12;100368.38;6642390;26;34220;-88
2022/03/04 05:38:55;;;;;;;48.95;24.33;;;;;;;1.30;72.66;100375.41;6642817;26;35040;-88
2022/03/04 05:41:58;;;;;;;53.55;26.77;;;;;;;1.36;72.53;100376.22;6643730;26;33704;-88
2022/03/04 05:45:01;;;;;;;52.53;26.48;;;;;;;1.41;71.91;100384.88;6643050;26;35146;-88
2022/03/04 05:48:09;;;;;;;51.13;26.30;;;;;;;1.50;71.66;100389.13;6624283;26;34621;-88
2022/03/04 05:51:12;;;;;;;51.45;27.73;;;;;;;1.54;71.52;100394.31;6644688;26;33613;-88
2022/03/04 05:54:15;;;;;;;51.95;27.15;;;;;;;1.59;71.25;100395.12;6641700;26;33940;-88
2022/03/04 05:57:17;;;;;;;54.88;27.05;;;;;;;1.63;71.12;100401.19;6641965;26;34472;-88
2022/03/04 06:00:21;;;;;;;45.40;25.85;;;;;;;1.72;70.31;100400.19;6642400;26;34336;-88
2022/03/04 06:03:24;;;;;;;48.38;25.48;;;;;;;1.72;70.60;100405.44;6642997;26;34298;-88
2022/03/04 06:06:30;;;;;;;51.40;27.25;;;;;;;1.64;71.04;100399.41;6641968;26;33533;-88
2022/03/04 06:09:33;;;;;;;52.38;26.60;;;;;;;1.62;71.11;100408.12;6642752;26;33871;-88
2022/03/04 06:12:35;;;;;;;50.50;26.15;;;;;;;1.75;70.63;100411.47;6642562;26;33837;-88
2022/03/04 06:15:38;;;;;;;55.70;27.75;;;;;;;1.76;70.47;100409.72;6642731;26;34126;-88
2022/03/04 06:18:41;;;;;;;48.53;26.45;;;;;;;1.83;70.39;100419.25;6641398;26;34494;-89
2022/03/04 06:21:44;;;;;;;50.53;26.42;;;;;;;1.81;70.49;100426.22;6652916;26;33986;-88
2022/03/04 06:24:47;;;;;;;51.90;26.80;;;;;;;1.95;70.00;100433.91;6658067;26;34135;-89
2022/03/04 06:28:01;;;;;;;49.30;26.45;;;;;;;2.01;69.64;100432.97;6653285;26;35040;-88
2022/03/04 06:31:04;;;;;;;48.80;25.70;;;;;;;2.17;68.75;100431.00;6642653;26;34752;-88
2022/03/04 06:34:07;;;;;;;49.97;25.83;;;;;;;2.09;69.08;100443.31;6635658;26;34675;-88
2022/03/04 06:37:11;;;;;;;48.50;26.58;;;;;;;2.03;69.19;100441.66;6635517;26;33725;-89
2022/03/04 06:40:14;;;;;;;49.47;27.27;;;;;;;2.09;68.64;100443.31;6635624;26;33854;-89
2022/03/04 06:43:23;;;;;;;52.92;27.25;;;;;;;2.18;69.00;100444.94;6636623;26;34371;-86
2022/03/04 06:46:26;;;;;;;51.22;26.77;;;;;;;2.26;68.29;100440.47;6637539;26;34618;-87
2022/03/04 06:49:28;;;;;;;49.63;26.98;;;;;;;2.37;66.61;100445.56;6638784;26;34389;-89
2022/03/04 06:52:31;;;;;;;55.42;28.02;;;;;;;2.37;67.09;100446.41;6649989;26;33982;-90
2022/03/04 06:55:34;;;;;;;54.33;28.95;;;;;;;2.39;66.59;100439.41;6645253;26;35293;-91
2022/03/04 06:58:37;;;;;;;52.78;27.42;;;;;;;2.37;66.52;100450.78;6637856;26;34397;-92
2022/03/04 07:01:40;;;;;;;57.05;28.50;;;;;;;2.36;67.73;100459.53;6619365;26;32567;-89
2022/03/04 07:04:44;;;;;;;55.28;29.48;;;;;;;2.01;72.91;100467.84;6635976;26;33766;-86
2022/03/04 07:07:47;;;;;;;59.95;29.80;;;;;;;1.82;76.69;100467.19;6640144;26;33841;-86
2022/03/04 07:10:49;;;;;;;59.30;30.17;;;;;;;1.57;80.18;100472.69;6641332;26;33993;-86
2022/03/04 07:13:53;;;;;;;57.05;30.60;;;;;;;1.25;83.84;100478.28;6641504;26;34443;-86
2022/03/04 07:16:56;;;;;;;58.08;30.37;;;;;;;1.31;85.28;100483.44;6637911;26;34650;-85
2022/03/04 07:19:59;;;;;;;60.30;31.35;;;;;;;1.30;85.77;100485.19;6637929;26;33976;-85
2022/03/04 07:23:03;;;;;;;60.85;30.50;;;;;;;1.26;86.75;100486.06;6637354;26;35133;-84
2022/03/04 07:26:09;;;;;;;59.40;29.65;;;;;;;1.24;87.95;100486.97;6639211;26;35271;-86
2022/03/04 07:29:11;;;;;;;59.10;29.95;;;;;;;1.31;88.07;100486.91;6621859;26;32662;-87
2022/03/04 07:32:14;;;;;;;55.88;30.02;;;;;;;1.21;87.54;100495.75;6653762;26;34172;-87
2022/03/04 07:35:17;;;;;;;55.17;29.35;;;;;;;1.36;87.30;100496.47;6652785;26;34790;-86
2022/03/04 07:38:20;;;;;;;54.38;28.35;;;;;;;1.53;86.71;100501.50;6643697;26;35312;-86
2022/03/04 07:41:23;;;;;;;49.88;25.98;;;;;;;1.54;85.86;100500.63;6640766;26;34133;-85
2022/03/04 07:44:26;;;;;;;54.13;27.27;;;;;;;1.57;84.88;100501.47;6639131;26;34251;-86
2022/03/04 07:47:29;;;;;;;51.10;28.73;;;;;;;1.84;84.76;100507.28;6639190;26;34295;-85
2022/03/04 07:50:32;;;;;;;56.65;29.42;;;;;;;2.04;84.46;100495.72;6639334;26;34075;-86
2022/03/04 07:53:35;;;;;;;51.80;27.45;;;;;;;1.99;85.39;100505.37;6640991;26;34030;-86
2022/03/04 07:56:38;;;;;;;50.33;27.85;;;;;;;2.27;82.55;100507.66;6642469;26;34294;-86
2022/03/04 07:59:41;;;;;;;52.78;27.87;;;;;;;2.52;81.44;100507.31;6639703;26;34139;-86
2022/03/04 08:02:43;;;;;;;49.85;27.58;;;;;;;2.87;79.80;100507.66;6637936;26;33916;-85
2022/03/04 08:05:50;;;;;;;53.75;28.40;;;;;;;3.00;78.16;100509.19;6638795;26;34773;-85
2022/03/04 08:08:52;;;;;;;50.40;28.38;;;;;;;3.22;77.14;100508.84;6638551;26;34591;-86
2022/03/04 08:11:55;;;;;;;55.78;28.75;;;;;;;3.44;74.94;100509.34;6639526;26;34270;-86
2022/03/04 08:14:58;;;;;;;55.47;29.90;;;;;;;3.73;75.15;100513.16;6638473;26;34169;-86
2022/03/04 08:18:08;;;;;;;54.08;29.00;;;;;;;3.76;76.28;100512.25;6637690;26;34145;-85
2022/03/04 08:21:11;;;;;;;50.78;28.20;;;;;;;3.99;74.96;100509.19;6645000;26;33694;-87
2022/03/04 08:24:14;;;;;;;54.97;29.90;;;;;;;3.75;75.32;100518.37;6642291;26;34824;-86
2022/03/04 08:27:17;;;;;;;52.90;29.35;;;;;;;3.46;76.95;100518.03;6636573;26;33871;-86
2022/03/04 08:30:20;;;;;;;51.85;29.30;;;;;;;4.13;76.05;100514.13;6638775;26;34051;-85
2022/03/04 08:33:30;;;;;;;53.78;29.27;;;;;;;3.96;73.70;100517.09;6638886;26;34410;-85
2022/03/04 08:36:35;;;;;;;62.25;28.92;;;;;;;4.11;72.97;100520.31;6639185;26;33679;-85
2022/03/04 08:39:38;;;;;;;55.05;29.60;;;;;;;4.20;73.14;100527.12;6637816;26;34754;-85
2022/03/04 08:42:42;;;;;;;52.05;27.58;;;;;;;3.98;73.09;100515.31;6640045;26;34434;-85
2022/03/04 08:45:47;;;;;;;51.95;29.02;;;;;;;4.40;70.94;100514.47;6638848;26;33638;-85
2022/03/04 08:48:50;;;;;;;59.47;29.65;;;;;;;4.73;68.48;100521.63;6638962;26;33728;-86
2022/03/04 08:51:52;;;;;;;54.28;28.83;;;;;;;4.76;67.64;100516.28;6640089;26;34171;-85
2022/03/04 08:54:55;;;;;;;54.13;28.95;;;;;;;5.31;65.80;100520.22;6638633;26;34376;-85
2022/03/04 08:58:00;;;;;;;53.22;28.35;;;;;;;5.30;65.37;100521.13;6637178;26;33991;-86
2022/03/04 09:01:04;;;;;;;49.45;28.27;;;;;;;6.04;64.39;100524.44;6638045;26;35339;-90
2022/03/04 09:04:07;;;;;;;52.30;27.45;;;;;;;7.60;58.64;100516.94;6639095;26;35032;-90
2022/03/04 09:07:10;;;;;;;46.45;27.35;;;;;;;8.53;55.14;100523.28;6619985;26;33765;-90
2022/03/04 09:10:13;;;;;;;45.65;25.40;;;;;;;9.05;52.18;100510.69;6648548;26;33837;-86
2022/03/04 09:13:18;;;;;;;43.13;23.73;;;;;;;9.56;50.57;100512.03;6648468;26;33833;-86
2022/03/04 09:16:21;;;;;;;43.90;26.17;;;;;;;8.90;51.67;100513.00;6642165;26;34145;-86
2022/03/04 09:19:24;;;;;;;41.97;25.85;;;;;;;9.15;49.73;100515.53;6638033;26;35244;-84
2022/03/04 09:22:47;;;;;;;41.17;24.12;;;;;;;9.40;47.47;100519.78;6638420;26;33658;-85
2022/03/04 09:25:52;;;;;;;42.15;26.05;;;;;;;10.47;46.24;100519.50;6647100;26;34587;-85
2022/03/04 09:28:54;;;;;;;45.00;26.62;;;;;;;9.90;45.05;100522.09;6646796;26;33992;-84
2022/03/04 09:31:58;;;;;;;47.95;27.40;;;;;;;9.65;45.11;100524.03;6638904;26;34273;-84
2022/03/04 09:35:01;;;;;;;47.50;27.10;;;;;;;9.66;46.39;100527.53;6638835;26;34427;-84
2022/03/04 09:38:04;;;;;;;44.03;26.85;;;;;;;8.80;46.66;100524.91;6637957;26;34227;-85
2022/03/04 09:41:08;;;;;;;48.00;26.83;;;;;;;8.49;47.81;100534.84;6643004;26;33791;-84
2022/03/04 09:44:13;;;;;;;44.97;25.88;;;;;;;6.80;50.94;100536.28;6642818;26;34291;-85
2022/03/04 09:47:21;;;;;;;44.65;27.35;;;;;;;6.37;52.52;100533.16;6639165;26;33774;-84
2022/03/04 09:50:27;;;;;;;47.03;26.85;;;;;;;6.67;53.55;100541.94;6639638;26;34337;-85
2022/03/04 09:53:29;;;;;;;47.00;25.48;;;;;;;6.60;52.85;100532.50;6638961;26;34993;-84
2022/03/04 09:56:32;;;;;;;44.55;26.12;;;;;;;6.17;52.99;100532.00;6639641;26;34219;-84
2022/03/04 09:59:35;;;;;;;43.15;26.00;;;;;;;5.80;54.43;100536.50;6640659;26;34280;-84
2022/03/04 10:02:39;;;;;;;49.78;26.08;;;;;;;5.08;56.64;100537.47;6641057;26;35523;-85
2022/03/04 10:05:52;;;;;;;45.72;25.80;;;;;;;4.97;57.93;100535.06;6640664;26;33781;-85
2022/03/04 10:08:55;;;;;;;45.25;26.05;;;;;;;5.15;57.09;100533.78;6640187;26;34594;-85
2022/03/04 10:12:03;;;;;;;45.22;26.05;;;;;;;5.55;56.74;100531.91;6640707;26;34170;-85
2022/03/04 10:15:07;;;;;;;47.38;26.58;;;;;;;5.59;56.11;100524.78;6641336;26;33913;-84
2022/03/04 10:18:10;;;;;;;46.03;26.65;;;;;;;5.27;57.42;100537.84;6643508;26;34909;-84
2022/03/04 10:21:13;;;;;;;45.85;25.85;;;;;;;4.85;58.51;100536.22;6644720;26;34412;-85
2022/03/04 10:24:28;;;;;;;50.60;26.35;;;;;;;4.57;58.71;100540.34;6639378;26;34495;-85
2022/03/04 10:27:34;;;;;;;47.15;26.52;;;;;;;4.77;58.35;100532.94;6639633;26;34112;-84
2022/03/04 10:30:41;;;;;;;42.80;25.85;;;;;;;5.42;57.23;100531.34;6639793;26;33751;-85
2022/03/04 10:33:43;;;;;;;47.50;24.33;;;;;;;5.55;56.89;100528.37;6639690;26;34186;-90
2022/03/04 10:36:53;;;;;;;45.47;24.55;;;;;;;6.11;54.79;100532.16;6637669;26;35397;-90
2022/03/04 10:40:06;;;;;;;42.28;25.20;;;;;;;6.29;54.06;100531.63;6637787;26;34114;-86
2022/03/04 10:43:11;;;;;;;42.10;25.17;;;;;;;7.12;51.92;100522.06;6637979;26;34340;-84
2022/03/04 10:46:14;;;;;;;46.80;25.83;;;;;;;8.39;47.88;100522.94;6637949;26;34814;-85
2022/03/04 10:49:24;;;;;;;43.40;25.42;;;;;;;8.22;47.86;100517.38;6637187;26;34269;-85
2022/03/04 10:52:26;;;;;;;46.03;25.20;;;;;;;8.13;47.68;100519.47;6637111;26;34387;-85
2022/03/04 10:56:02;;;;;;;41.92;25.00;;;;;;;7.68;48.83;100520.19;6636869;26;34799;-85
2022/03/04 10:59:10;;;;;;;49.65;26.60;;;;;;;7.28;49.43;100517.12;6630726;26;34282;-83
2022/03/04 11:02:13;;;;;;;43.78;25.73;;;;;;;7.09;50.19;100526.59;6636589;26;34584;-83
2022/03/04 11:05:16;;;;;;;45.15;26.90;;;;;;;6.30;52.70;100519.34;6638782;26;34158;-83
2022/03/04 11:08:22;;;;;;;45.95;25.95;;;;;;;6.09;53.17;100521.69;6639940;26;34624;-85
2022/03/04 11:11:26;;;;;;;47.25;26.08;;;;;;;5.80;54.33;100518.91;6638485;26;34558;-84
2022/03/04 11:14:29;;;;;;;44.42;26.70;;;;;;;5.73;54.55;100521.78;6645384;26;34011;-84
2022/03/04 11:17:37;;;;;;;48.13;28.15;;;;;;;5.63;54.92;100508.84;6651306;26;34008;-84
2022/03/04 11:20:47;;;;;;;47.35;27.27;;;;;;;5.35;56.79;100521.87;6646275;26;33979;-84
2022/03/04 11:23:51;;;;;;;50.42;27.00;;;;;;;5.10;57.72;100519.88;6639848;26;34669;-84
2022/03/04 11:27:04;;;;;;;47.08;27.10;;;;;;;4.94;58.95;100522.00;6642587;26;33800;-84
2022/03/04 11:30:09;;;;;;;44.75;26.77;;;;;;;4.62;60.67;100529.72;6652125;26;37009;-85
2022/03/04 11:33:26;;;;;;;46.67;26.83;;;;;;;4.51;62.13;100531.72;6640228;26;33825;-84
2022/03/04 11:36:34;;;;;;;52.47;28.83;;;;;;;4.48;63.14;100523.94;6640023;26;33849;-88
2022/03/04 11:40:04;;;;;;;49.65;26.73;;;;;;;4.29;64.84;100534.84;6640157;26;34942;-85
2022/03/04 11:43:09;;;;;;;50.05;27.67;;;;;;;4.13;66.39;100527.25;6639770;26;34573;-84
2022/03/04 11:46:19;;;;;;;47.17;26.73;;;;;;;4.46;66.18;100534.47;6640322;26;34579;-84
2022/03/04 11:49:27;;;;;;;56.00;27.87;;;;;;;4.24;67.23;100528.81;6639580;26;34236;-84
2022/03/04 11:52:43;;;;;;;48.63;26.40;;;;;;;4.14;66.41;100529.03;6639028;26;34030;-84
2022/03/04 11:56:10;;;;;;;50.30;27.80;;;;;;;4.39;66.14;100525.88;6639003;26;34573;-84
2022/03/04 11:59:21;;;;;;;46.20;27.10;;;;;;;4.27;65.10;100529.59;6637918;26;34312;-84
2022/03/04 12:02:37;;;;;;;44.55;26.75;;;;;;;4.37;64.12;100524.19;6639363;26;34069;-84
2022/03/04 12:05:45;;;;;;;49.20;27.60;;;;;;;4.48;63.25;100534.44;6639774;26;35160;-84
2022/03/04 12:08:48;;;;;;;49.72;27.67;;;;;;;5.03;63.70;100529.66;6638956;26;33971;-84
2022/03/04 12:12:16;;;;;;;48.75;27.98;;;;;;;5.12;62.43;100534.72;6638704;26;34031;-84
2022/03/04 12:15:18;;;;;;;51.78;28.30;;;;;;;4.75;64.55;100535.59;6640805;26;34436;-85
2022/03/04 12:18:42;;;;;;;51.42;27.00;;;;;;;4.59;65.29;100535.91;6644635;26;34220;-88
2022/03/04 12:21:47;;;;;;;49.38;27.20;;;;;;;4.72;64.29;100538.28;6641612;26;35021;-83
2022/03/04 12:24:55;;;;;;;51.33;28.83;;;;;;;4.40;66.06;100535.47;6642116;26;34501;-84
2022/03/04 12:27:58;;;;;;;50.40;26.48;;;;;;;5.04;64.22;100534.03;6644452;26;33823;-84
2022/03/04 12:31:00;;;;;;;46.35;27.23;;;;;;;5.22;61.75;100529.22;6652099;26;34246;-85
2022/03/04 12:34:03;;;;;;;49.47;26.55;;;;;;;5.18;60.73;100533.69;6645393;26;35350;-84
2022/03/04 12:37:10;;;;;;;44.13;25.73;;;;;;;5.38;61.03;100532.34;6638986;26;34289;-84
2022/03/04 12:40:16;;;;;;;49.00;27.45;;;;;;;5.61;59.04;100533.50;6637313;26;34340;-85
2022/03/04 12:43:19;;;;;;;48.15;27.77;;;;;;;5.59;59.42;100524.78;6638857;26;34253;-85
2022/03/04 12:46:27;;;;;;;48.33;27.05;;;;;;;6.10;57.86;100533.97;6638465;26;34260;-85
2022/03/04 12:49:32;;;;;;;46.80;27.52;;;;;;;6.05;55.93;100528.78;6637781;26;34545;-87
2022/03/04 12:52:41;;;;;;;52.05;28.62;;;;;;;5.55;57.48;100529.25;6614766;26;33989;-85
2022/03/04 12:55:49;;;;;;;51.72;28.92;;;;;;;6.15;56.77;100526.78;6642404;26;34509;-87
2022/03/04 12:58:54;;;;;;;47.10;27.00;;;;;;;5.70;57.48;100528.00;6639407;26;34816;-85
2022/03/04 13:01:58;;;;;;;45.53;26.27;;;;;;;5.28;58.17;100528.22;6638569;26;35076;-86
2022/03/04 13:05:03;;;;;;;46.33;26.35;;;;;;;5.42;57.16;100517.34;6636498;26;34794;-84
2022/03/04 13:08:06;;;;;;;45.45;25.73;;;;;;;5.37;57.77;100520.94;6636769;26;34564;-85
2022/03/04 13:11:14;;;;;;;43.90;26.02;;;;;;;5.12;57.83;100520.69;6638037;26;34434;-85
2022/03/04 13:14:19;;;;;;;45.28;26.50;;;;;;;5.25;57.35;100508.09;6635709;26;33773;-84
2022/03/04 13:17:21;;;;;;;45.28;25.73;;;;;;;5.57;56.33;100509.03;6635978;26;34855;-83
2022/03/04 13:20:24;;;;;;;44.58;25.95;;;;;;;5.25;57.02;100505.47;6638169;26;34096;-84
2022/03/04 13:23:27;;;;;;;44.25;26.23;;;;;;;5.09;57.00;100510.25;6634157;26;33889;-85
2022/03/04 13:26:32;;;;;;;45.75;25.95;;;;;;;4.83;58.66;100503.88;6636773;26;35053;-85
2022/03/04 13:29:44;;;;;;;42.92;24.52;;;;;;;4.75;58.96;100511.94;6634997;26;34244;-85
2022/03/04 13:32:54;;;;;;;43.08;25.30;;;;;;;4.51;60.16;100508.97;6635068;26;34660;-86
2022/03/04 13:35:58;;;;;;;44.72;24.65;;;;;;;4.49;59.82;100510.78;6637019;26;34033;-84
2022/03/04 13:39:25;;;;;;;49.17;27.33;;;;;;;4.44;60.07;100513.47;6616497;26;33090;-89
2022/03/04 13:42:29;;;;;;;44.15;26.45;;;;;;;4.75;59.41;100516.31;6636687;26;33978;-87
2022/03/04 13:45:46;;;;;;;44.88;23.50;;;;;;;5.06;58.53;100513.81;6639813;26;34680;-85
2022/03/04 13:49:04;;;;;;;45.60;25.58;;;;;;;4.66;58.21;100501.63;6648573;26;35413;-83
2022/03/04 13:52:07;;;;;;;46.78;25.92;;;;;;;4.84;57.98;100509.06;6638648;26;34146;-83
2022/03/04 13:55:10;;;;;;;46.80;26.33;;;;;;;5.31;57.11;100507.06;6638109;26;34122;-83
2022/03/04 13:58:13;;;;;;;50.97;26.83;;;;;;;5.69;55.95;100501.72;6639354;26;34728;-83
2022/03/04 14:01:20;;;;;;;50.00;26.92;;;;;;;6.06;55.02;100503.34;6640068;26;34293;-83
2022/03/04 14:04:23;;;;;;;44.95;26.02;;;;;;;5.62;57.17;100511.53;6643196;26;34159;-83
2022/03/04 14:07:26;;;;;;;43.13;25.10;;;;;;;4.99;60.92;100512.25;6643142;26;34156;-83
2022/03/04 14:10:29;;;;;;;42.70;25.20;;;;;;;5.12;61.56;100504.91;6642373;26;34536;-83
2022/03/04 14:13:32;;;;;;;42.40;25.00;;;;;;;5.15;60.36;100509.22;6643781;26;34806;-83
2022/03/04 14:16:35;;;;;;;47.50;27.85;;;;;;;4.97;60.75;100516.66;6643665;26;33779;-85
2022/03/04 14:19:39;;;;;;;49.92;27.85;;;;;;;4.87;62.80;100510.78;6638082;26;34413;-83
2022/03/04 14:22:43;;;;;;;53.45;29.80;;;;;;;4.53;66.70;100519.44;6639408;26;34765;-85
2022/03/04 14:25:49;;;;;;;51.95;29.15;;;;;;;4.40;68.25;100511.84;6637695;26;34755;-84
2022/03/04 14:29:10;;;;;;;51.47;29.65;;;;;;;4.77;67.26;100511.91;6637666;26;34768;-83
2022/03/04 14:32:13;;;;;;;43.08;25.67;;;;;;;4.58;67.88;100512.31;6639028;26;34014;-84
2022/03/04 14:35:19;;;;;;;47.97;26.33;;;;;;;4.44;67.06;100512.63;6639664;26;34862;-83
2022/03/04 14:38:23;;;;;;;47.08;25.33;;;;;;;4.38;66.71;100508.34;6640894;26;34746;-85
2022/03/04 14:41:27;;;;;;;46.92;27.45;;;;;;;4.10;67.68;100506.34;6642272;26;34347;-85
2022/03/04 14:44:29;;;;;;;54.35;28.60;;;;;;;3.68;68.31;100506.28;6641348;26;34133;-86
2022/03/04 14:47:34;;;;;;;52.90;28.95;;;;;;;3.53;67.62;100505.69;6639511;26;33680;-86
2022/03/04 14:50:39;;;;;;;51.90;27.92;;;;;;;3.59;67.34;100510.81;6640343;26;34410;-86
2022/03/04 14:53:43;;;;;;;54.00;29.77;;;;;;;3.70;66.54;100510.63;6638525;26;34378;-88
2022/03/04 14:56:46;;;;;;;51.67;29.02;;;;;;;3.75;66.22;100516.66;6638578;26;33876;-89
2022/03/04 14:59:52;;;;;;;55.80;30.52;;;;;;;3.88;65.82;100512.00;6639058;26;33989;-89
2022/03/04 15:02:54;;;;;;;55.08;30.83;;;;;;;3.91;65.04;100513.72;6643376;26;34781;-87
2022/03/04 15:05:58;;;;;;;51.97;29.45;;;;;;;3.94;65.08;100512.78;6646287;26;34331;-86
2022/03/04 15:09:00;;;;;;;56.85;31.42;;;;;;;4.15;64.42;100511.47;6645414;26;34309;-86
2022/03/04 15:12:24;;;;;;;60.38;30.90;;;;;;;4.05;64.95;100508.19;6645514;26;33911;-86
2022/03/04 15:15:27;;;;;;;54.85;31.08;;;;;;;4.14;64.95;100509.75;6646332;26;34861;-86
2022/03/04 15:18:30;;;;;;;54.58;29.15;;;;;;;4.27;64.15;100513.00;6644254;26;34521;-86
2022/03/04 15:21:34;;;;;;;54.25;30.80;;;;;;;4.58;64.21;100513.19;6645036;26;34228;-84
2022/03/04 15:24:39;;;;;;;51.53;28.12;;;;;;;4.50;63.32;100515.13;6644044;26;34115;-86
2022/03/04 15:27:47;;;;;;;49.00;26.92;;;;;;;4.30;65.38;100510.28;6642628;26;34463;-86
2022/03/04 15:31:07;;;;;;;42.65;25.17;;;;;;;4.07;65.82;100519.50;6638494;26;34865;-86
2022/03/04 15:34:11;;;;;;;45.22;25.85;;;;;;;4.50;64.68;100520.38;6642797;26;34649;-86
2022/03/04 15:37:13;;;;;;;46.40;25.98;;;;;;;4.92;62.56;100519.41;6642969;26;33978;-87
2022/03/04 15:40:24;;;;;;;50.67;27.95;;;;;;;4.50;63.31;100522.13;6642345;26;34887;-84
2022/03/04 15:43:29;;;;;;;47.65;25.92;;;;;;;4.34;64.05;100526.84;6651326;26;33916;-84
2022/03/04 15:46:33;;;;;;;43.63;25.50;;;;;;;4.65;62.87;100513.03;6652183;26;35257;-84
2022/03/04 15:49:36;;;;;;;40.53;23.65;;;;;;;4.57;59.78;100523.72;6641145;26;33862;-84
2022/03/04 15:52:40;;;;;;;41.22;23.30;;;;;;;4.60;58.95;100521.03;6639804;26;34094;-84
2022/03/04 15:55:44;;;;;;;34.40;20.50;;;;;;;4.54;58.60;100521.16;6640498;26;34073;-84
2022/03/04 15:58:47;;;;;;;39.08;22.65;;;;;;;4.49;57.41;100533.53;6639630;26;34948;-84
2022/03/04 16:01:51;;;;;;;39.78;23.87;;;;;;;4.46;57.28;100529.22;6640597;26;34397;-84
2022/03/04 16:04:54;;;;;;;51.83;27.95;;;;;;;4.64;57.35;100530.59;6641024;26;34491;-84
2022/03/04 16:07:57;;;;;;;49.95;28.87;;;;;;;4.43;59.98;100526.66;6640881;26;33915;-84
2022/03/04 16:11:00;;;;;;;52.58;29.58;;;;;;;4.28;61.49;100527.84;6642589;26;33963;-84
2022/03/04 16:14:03;;;;;;;48.47;28.83;;;;;;;4.41;62.30;100533.69;6647689;26;34199;-84
2022/03/04 16:17:06;;;;;;;53.25;29.67;;;;;;;4.38;62.04;100536.41;6643188;26;34225;-84
2022/03/04 16:20:10;;;;;;;52.95;29.40;;;;;;;4.28;62.38;100528.69;6643835;26;34352;-84
2022/03/04 16:23:13;;;;;;;55.12;30.02;;;;;;;4.20;62.70;100533.25;6641154;26;34612;-84
2022/03/04 16:26:16;;;;;;;53.92;29.50;;;;;;;3.68;64.96;100540.41;6641392;26;34584;-84
